• Join FlightAware (Why Join?)
  • Login
  • US Flag 
04:28PM EDT


 

Airport Tracker/Info


-or-


 

Live Flight TrackerFlight Track Log ✈ JIA2335 ✈ 13-May-2013 ✈ KPHL - KDAY

Flight Track Log - Related Links

Times and Time Zones

All times are in EDT time to prevent confusion due to time zone crossing. See the JIA2335 flight status page for this flight to view local times or setup timezone preferences in your user account.

Time Position Orientation Groundspeed Altitude Reporting Facility
EDT Latitude Longitude Course Direction KTS MPH feet Rate Location/Type
09:24AM 39.8667 -75.2833 270° West 166 191 900  Level Philadelphia TRACON
09:25AM 39.8500 -75.3167 237° Southwest 170 196 1,700 1,860 Climbing Philadelphia TRACON
09:26AM 39.8333 -75.3833 252° West 234 269 3,700 2,220 Climbing Philadelphia TRACON
09:27AM 39.9000 -75.5722 270° West  Level FlightAware Approximate
09:27AM 39.8333 -75.4833 270° West 235 270 6,700  Level Philadelphia TRACON
09:28AM 39.9132 -75.6876 258° West  Level FlightAware Approximate
09:28AM 39.8286 -75.6150 267° West 246 283 9,900  Level New York Center
09:29AM 39.9000 -75.8045 270° West  Level FlightAware Approximate
09:29AM 39.8397 -75.6967 280° West 257 296 10,000  Level New York Center
09:30AM 39.8539 -75.8033 280° West 264 304 10,600 1,140 Climbing New York Center
09:31AM 39.8669 -75.8908 281° West 270 311 12,300 1,920 Climbing New York Center
09:32AM 39.8828 -76.0028 280° West 288 331 14,500 1,860 Climbing New York Center
09:33AM 39.8950 -76.1011 279° West 301 346 16,100 1,380 Climbing New York Center
09:34AM 39.9050 -76.2022 277° West 308 354 17,400 1,320 Climbing New York Center
09:35AM 39.9133 -76.3381 275° West 315 362 18,700 1,260 Climbing New York Center
09:36AM 39.9158 -76.4603 272° West 332 382 19,900 1,380 Climbing New York Center
09:37AM 39.9225 -76.5797 274° West 332 382 21,600 1,620 Climbing New York Center
09:38AM 39.9272 -76.6967 273° West 332 382 23,200 1,560 Climbing New York Center
09:39AM 39.9317 -76.8108 273° West 332 382 24,800 1,440 Climbing New York Center
09:40AM 39.9347 -76.9167 272° West 326 375 26,100 1,020 Climbing New York Center
09:41AM 39.9392 -77.0281 273° West 314 361 26,900 780 Climbing New York Center
09:42AM 39.9417 -77.1394 272° West 314 361 27,700 780 Climbing New York Center
09:43AM 39.9481 -77.2508 274° West 314 361 28,500 780 Climbing New York Center
09:44AM 39.9522 -77.3625 273° West 314 361 29,300 540 Climbing New York Center
09:46AM 39.9608 -77.5764 273° West 314 361 30,300 480 Climbing Cleveland Center
09:47AM 39.9636 -77.6900 272° West 314 361 30,800 540 Climbing Cleveland Center
09:48AM 39.9686 -77.8011 273° West 309 356 31,400 480 Climbing Cleveland Center
09:49AM 39.9714 -77.9147 272° West 309 356 31,800 300 Climbing Cleveland Center
09:50AM 39.9761 -78.0336 273° West 314 361 32,000 60 Climbing Cleveland Center
09:51AM 39.9786 -78.1500 272° West 320 368 32,000  Level Cleveland Center
09:52AM 39.9836 -78.2828 273° West 332 382 32,000  Level Cleveland Center
09:53AM 39.9794 -78.3967 267° West 337 388 32,000  Level Cleveland Center
09:54AM 39.9839 -78.5183 273° West 342 394 32,000  Level Cleveland Center
09:55AM 39.9861 -78.6431 271° West 348 400 32,000  Level Cleveland Center
09:56AM 39.9900 -78.7650 272° West 348 400 32,000  Level Cleveland Center
09:57AM 39.9919 -78.8922 271° West 348 400 32,000  Level Cleveland Center
09:58AM 40.0003 -79.0328 274° West 348 400 32,000  Level Cleveland Center
09:59AM 40.0061 -79.1575 274° West 348 400 32,000  Level Cleveland Center
10:00AM 40.0139 -79.2847 275° West 348 400 32,000  Level Cleveland Center
10:01AM 40.0194 -79.4147 273° West 348 400 32,000  Level Cleveland Center
10:02AM 40.0292 -79.5475 276° West 354 407 32,000  Level Cleveland Center
10:03AM 40.0364 -79.6775 274° West 359 413 32,000  Level Cleveland Center
10:04AM 40.0417 -79.8075 273° West 364 419 32,000  Level Cleveland Center
10:05AM 40.0508 -79.9431 275° West 364 419 32,000  Level Cleveland Center
10:06AM 40.0578 -80.0758 274° West 364 419 32,000  Level Cleveland Center
10:07AM 40.0625 -80.2114 273° West 369 425 32,000  Level Cleveland Center
10:08AM 40.0689 -80.3308 274° West 369 425 32,000  Level Cleveland Center
10:09AM 40.0756 -80.4692 274° West 369 425 32,000  Level Cleveland Center
10:10AM 40.0797 -80.6019 272° West 374 430 32,000  Level Cleveland Center
10:11AM 40.0878 -80.7406 274° West 374 430 32,000  Level Cleveland Center
10:12AM 40.0939 -80.8761 273° West 380 437 32,000  Level Cleveland Center
10:13AM 40.0997 -81.0147 273° West 386 444 32,000  Level Cleveland Center
10:14AM 40.1033 -81.1531 272° West 386 444 32,000  Level Cleveland Center
10:15AM 40.1033 -81.1986 270° West 382 440 32,000  Level Indianapolis Center
10:16AM 40.1089 -81.3392 273° West 384 442 32,000 -540 Level Indianapolis Center
10:17AM 40.1142 -81.4792 273° West 382 440 30,900 -1,920 Descending Indianapolis Center
10:18AM 40.1189 -81.6203 273° West 384 442 28,100 -1,680 Descending Indianapolis Center
10:19AM 40.1236 -81.7528 273° West 364 419 27,500 -840 Descending Indianapolis Center
10:20AM 40.1289 -81.8811 273° West 344 396 26,400 -1,020 Descending Indianapolis Center
10:21AM 40.1325 -82.0103 272° West 351 404 25,400 -1,080 Descending Indianapolis Center
10:22AM 40.1394 -82.1642 273° West 360 414 24,200 -1,080 Descending Indianapolis Center
10:23AM 40.1431 -82.2978 272° West 366 421 23,200 -1,020 Descending Indianapolis Center
10:24AM 40.1467 -82.4314 272° West 366 421 22,200 -1,020 Descending Indianapolis Center
10:25AM 40.1517 -82.5614 273° West 357 411 21,200 -1,020 Descending Indianapolis Center
10:26AM 40.1558 -82.6847 273° West 341 392 20,200 -1,020 Descending Indianapolis Center
10:27AM 40.1631 -82.8069 274° West 335 386 19,200 -1,020 Descending Indianapolis Center
10:28AM 40.1686 -82.9239 274° West 326 375 18,200 -1,020 Descending Indianapolis Center
10:29AM 40.1753 -83.0586 274° West 318 366 17,200 -1,020 Descending Indianapolis Center
10:30AM 40.1806 -83.1700 274° West 311 358 16,200 -1,080 Descending Indianapolis Center
10:31AM 40.1831 -83.2092 275° West 305 351 15,800 -1,200 Descending Indianapolis Center
10:31AM 40.1867 -83.2750 274° West 299 344 15,100 -1,200 Descending Indianapolis Center
10:32AM 40.1906 -83.3844 273° West 292 336 13,800 -1,260 Descending Indianapolis Center
10:33AM 40.1647 -83.4964 253° West 299 344 12,500 -1,320 Descending Indianapolis Center
10:34AM 40.1364 -83.5964 250° West 291 335 11,200 -1,620 Descending Indianapolis Center
10:35AM 40.1086 -83.6953 250° West 277 319 9,100 -2,040 Descending Indianapolis Center
10:36AM 40.0919 -83.7708 254° West 261 300 7,400 -1,680 Descending Indianapolis Center
10:37AM 40.0706 -83.8608 253° West 256 295 6,000 -1,380 Descending Indianapolis Center
10:38AM 40.0417 -83.9389 244° Southwest 248 285 4,600 -1,380 Descending Indianapolis Center